Time;durP1;ratioP1;P1;durP2;ratioP2;P2;SDS_P1;SDS_P2;PMS_P1;PMS_P2;Temp;Humidity;BMP_temperature;BMP_pressure;BME280_temperature;BME280_humidity;BME280_pressure;Samples;Min_cycle;Max_cycle;Signal;HPM_P1;HPM_P2
2022/05/07 00:01:36;;;;;;;0.40;0.20;;;;;;;14.02;54.60;100975.96;104844;1279;95214;-78
2022/05/07 00:04:04;;;;;;;0.40;0.20;;;;;;;14.07;54.77;100978.81;104780;1279;95164;-79
2022/05/07 00:06:32;;;;;;;0.40;0.20;;;;;;;13.97;55.03;100975.75;104703;1279;139443;-80
2022/05/07 00:09:00;;;;;;;0.40;0.20;;;;;;;14.04;54.76;100978.58;104828;1279;97615;-79
2022/05/07 00:11:28;;;;;;;0.40;0.30;;;;;;;14.11;54.55;100976.75;104686;1279;139123;-79
2022/05/07 00:13:56;;;;;;;0.40;0.20;;;;;;;14.04;54.75;100976.05;104168;1279;96465;-78
2022/05/07 00:19:11;;;;;;;0.40;0.20;;;;;;;13.97;54.78;100974.15;104131;1279;110186;-78
2022/05/07 00:21:39;;;;;;;0.40;0.20;;;;;;;13.92;55.15;100975.71;104140;1279;98904;-79
2022/05/07 00:24:07;;;;;;;0.40;0.20;;;;;;;13.78;55.50;100979.90;104037;1278;140275;-78
2022/05/07 00:26:35;;;;;;;0.40;0.30;;;;;;;13.71;55.66;100979.58;104133;1279;95244;-80
2022/05/07 00:29:03;;;;;;;0.40;0.20;;;;;;;13.76;55.47;100984.27;104014;1279;139170;-78
2022/05/07 00:31:30;;;;;;;0.40;0.20;;;;;;;13.82;55.24;100986.02;104165;1279;108822;-78
2022/05/07 00:33:59;;;;;;;0.40;0.30;;;;;;;13.82;55.19;100982.08;104158;1279;100364;-78
2022/05/07 00:36:35;;;;;;;0.40;0.30;;;;;;;13.81;55.25;100988.20;103933;1279;139613;-78
2022/05/07 00:39:04;;;;;;;0.40;0.20;;;;;;;13.75;55.57;100983.19;104079;1279;95546;-78
2022/05/07 00:41:33;;;;;;;0.40;0.20;;;;;;;13.57;55.87;100982.66;104024;1279;140479;-78
2022/05/07 00:44:01;;;;;;;0.40;0.30;;;;;;;13.57;55.99;100983.05;104140;1279;110114;-79
2022/05/07 00:46:29;;;;;;;0.40;0.30;;;;;;;13.61;55.94;100980.41;104138;1279;99750;-79
2022/05/07 00:48:58;;;;;;;0.40;0.30;;;;;;;13.62;55.84;100978.77;104124;1279;138476;-79
2022/05/07 00:51:35;;;;;;;0.40;0.30;;;;;;;13.59;55.88;100977.98;103916;1279;95251;-78
2022/05/07 00:54:09;;;;;;;0.40;0.30;;;;;;;13.59;55.91;100977.09;104061;1281;140234;-78
2022/05/07 00:56:38;;;;;;;0.40;0.30;;;;;;;13.55;55.94;100978.09;104186;1279;110329;-79
2022/05/07 00:59:06;;;;;;;0.40;0.30;;;;;;;13.56;55.87;100978.23;103943;1279;140623;-78
2022/05/07 01:01:35;;;;;;;0.40;0.30;;;;;;;13.49;56.31;100970.77;104189;1279;109751;-78
2022/05/07 01:04:06;;;;;;;0.40;0.20;;;;;;;13.39;56.52;100968.38;104185;1278;96258;-78
2022/05/07 01:06:35;;;;;;;0.40;0.30;;;;;;;13.35;56.71;100970.60;104055;1279;139463;-79
2022/05/07 01:09:06;;;;;;;0.40;0.30;;;;;;;13.32;56.75;100967.13;104278;1279;110463;-78
2022/05/07 01:11:36;;;;;;;0.40;0.30;;;;;;;13.23;56.87;100968.10;103738;1282;138806;-78
2022/05/07 01:14:04;;;;;;;0.40;0.30;;;;;;;13.18;56.91;100965.73;104160;1279;108586;-78
2022/05/07 01:16:35;;;;;;;0.40;0.30;;;;;;;13.29;56.76;100960.80;104151;1279;95245;-78
2022/05/07 01:19:06;;;;;;;0.40;0.30;;;;;;;13.31;56.79;100964.30;104025;1279;140589;-79
2022/05/07 01:21:34;;;;;;;0.40;0.30;;;;;;;13.24;57.05;100962.70;103889;1279;109228;-78
2022/05/07 01:24:07;;;;;;;0.40;0.30;;;;;;;13.16;57.05;100962.20;104152;1278;138703;-78
2022/05/07 01:26:39;;;;;;;0.40;0.30;;;;;;;13.06;57.38;100959.45;104151;1279;108779;-78
2022/05/07 01:29:07;;;;;;;0.40;0.30;;;;;;;13.04;57.53;100960.40;103672;1280;139279;-78
2022/05/07 01:31:41;;;;;;;0.40;0.30;;;;;;;13.11;57.32;100957.00;105719;1279;95137;-80
2022/05/07 01:34:09;;;;;;;0.40;0.30;;;;;;;13.10;57.45;100957.23;104880;1279;109534;-78
2022/05/07 01:36:38;;;;;;;0.40;0.30;;;;;;;13.11;57.64;100958.78;103734;1280;139555;-78
2022/05/07 01:39:10;;;;;;;0.40;0.30;;;;;;;13.11;57.39;100952.72;104216;1278;110425;-81
2022/05/07 01:41:38;;;;;;;0.40;0.30;;;;;;;13.15;57.43;100951.36;103948;1279;139384;-79
2022/05/07 01:44:07;;;;;;;0.40;0.30;;;;;;;13.21;57.67;100952.98;104182;1279;95457;-78
2022/05/07 01:49:26;;;;;;;0.40;0.30;;;;;;;13.15;57.49;100951.73;104139;1278;100144;-79
2022/05/07 01:51:55;;;;;;;0.40;0.30;;;;;;;13.14;57.83;100947.81;104081;1279;109330;-78
2022/05/07 01:54:23;;;;;;;0.40;0.30;;;;;;;13.03;58.24;100941.00;104172;1279;139557;-78
2022/05/07 01:56:52;;;;;;;0.40;0.30;;;;;;;12.98;58.27;100944.00;104292;1279;95981;-79
2022/05/07 01:59:20;;;;;;;0.40;0.30;;;;;;;13.04;58.09;100942.77;104151;1279;139269;-78
2022/05/07 02:01:49;;;;;;;0.40;0.30;;;;;;;13.05;58.16;100938.63;104068;1279;99991;-78
2022/05/07 02:04:17;;;;;;;0.40;0.30;;;;;;;12.90;58.35;100938.15;104045;1279;109264;-78
2022/05/07 02:06:45;;;;;;;0.40;0.30;;;;;;;12.92;58.28;100946.14;103682;1279;140307;-78
2022/05/07 02:09:13;;;;;;;0.40;0.30;;;;;;;13.01;58.31;100940.86;104079;1279;95641;-78
2022/05/07 02:11:41;;;;;;;0.40;0.30;;;;;;;12.84;58.62;100937.61;103925;1280;140520;-78
2022/05/07 02:14:09;;;;;;;0.40;0.30;;;;;;;12.66;58.97;100937.73;103902;1281;100083;-77
2022/05/07 02:16:39;;;;;;;0.40;0.30;;;;;;;12.76;58.74;100940.32;104122;1279;109280;-77
2022/05/07 02:19:07;;;;;;;0.40;0.30;;;;;;;12.80;58.82;100937.71;104246;1280;140258;-79
2022/05/07 02:21:35;;;;;;;0.40;0.30;;;;;;;12.71;58.89;100935.63;104628;1279;95875;-77
2022/05/07 02:24:03;;;;;;;0.40;0.20;;;;;;;12.79;58.54;100941.84;103903;1279;140127;-77
2022/05/07 02:26:33;;;;;;;0.40;0.30;;;;;;;12.75;58.77;100937.67;104241;1279;98473;-80
2022/05/07 02:29:03;;;;;;;0.40;0.30;;;;;;;12.56;59.03;100938.16;104656;1279;141546;-78
2022/05/07 02:31:32;;;;;;;0.40;0.30;;;;;;;12.60;58.84;100941.27;104071;1279;95962;-78
2022/05/07 02:34:01;;;;;;;0.40;0.30;;;;;;;12.55;59.18;100934.27;104175;1279;95480;-78
2022/05/07 02:36:29;;;;;;;0.40;0.30;;;;;;;12.34;59.68;100935.52;104121;1279;141298;-78
2022/05/07 02:38:59;;;;;;;0.40;0.30;;;;;;;12.36;59.90;100939.02;104229;1279;100666;-79
2022/05/07 02:44:13;;;;;;;0.40;0.30;;;;;;;12.43;59.50;100942.94;104162;1279;95206;-78
2022/05/07 02:46:41;;;;;;;0.40;0.30;;;;;;;12.50;59.28;100945.64;104030;1281;95290;-78
2022/05/07 02:49:11;;;;;;;0.40;0.30;;;;;;;12.47;59.07;100949.25;104111;1279;138406;-81
2022/05/07 02:51:39;;;;;;;0.50;0.40;;;;;;;12.46;59.17;100950.19;104727;1279;99831;-79
2022/05/07 02:54:08;;;;;;;0.40;0.30;;;;;;;12.50;59.07;100951.84;104200;1279;140512;-78
2022/05/07 02:56:36;;;;;;;0.40;0.30;;;;;;;12.43;59.08;100948.45;104108;1281;95436;-78
2022/05/07 02:59:04;;;;;;;0.50;0.40;;;;;;;12.36;59.36;100949.35;104254;1279;142611;-78
2022/05/07 03:01:32;;;;;;;0.40;0.30;;;;;;;12.21;59.66;100949.35;104442;1279;110247;-78
2022/05/07 03:04:00;;;;;;;0.40;0.30;;;;;;;12.20;59.94;100949.92;104474;1279;99827;-79
2022/05/07 03:06:28;;;;;;;0.40;0.30;;;;;;;12.31;59.61;100951.27;104334;1279;139041;-79
2022/05/07 03:08:55;;;;;;;0.40;0.30;;;;;;;12.34;59.41;100955.11;104856;1279;95171;-79
2022/05/07 03:11:23;;;;;;;0.40;0.30;;;;;;;12.31;59.49;100952.66;104575;1279;140649;-79
2022/05/07 03:13:51;;;;;;;0.40;0.30;;;;;;;12.14;59.99;100951.14;104618;1281;108654;-80
2022/05/07 03:16:19;;;;;;;0.40;0.30;;;;;;;12.05;60.11;100950.29;104901;1279;99300;-79
2022/05/07 03:18:47;;;;;;;0.40;0.30;;;;;;;12.10;60.27;100949.79;104767;1280;139089;-79
2022/05/07 03:21:14;;;;;;;0.40;0.30;;;;;;;12.14;60.11;100945.98;105151;1279;95271;-80
2022/05/07 03:23:44;;;;;;;0.40;0.30;;;;;;;12.13;60.37;100947.05;105336;1281;138162;-80
2022/05/07 03:26:14;;;;;;;0.40;0.30;;;;;;;12.11;60.29;100944.09;105223;1279;110152;-78
2022/05/07 03:28:42;;;;;;;0.40;0.30;;;;;;;12.17;60.26;100952.66;104725;1281;98190;-79
2022/05/07 03:31:13;;;;;;;0.40;0.30;;;;;;;12.27;59.89;100957.76;103991;1279;138637;-78
2022/05/07 03:33:42;;;;;;;0.40;0.30;;;;;;;12.35;59.72;100965.76;104162;1279;95341;-79
2022/05/07 03:36:15;;;;;;;0.40;0.30;;;;;;;12.27;60.00;100962.20;104281;1279;139025;-78
2022/05/07 03:38:44;;;;;;;0.40;0.30;;;;;;;12.30;60.03;100965.35;104256;1279;108627;-78
2022/05/07 03:41:16;;;;;;;0.40;0.30;;;;;;;12.38;60.00;100963.38;104124;1279;139289;-78
2022/05/07 03:43:43;;;;;;;0.40;0.30;;;;;;;12.29;60.17;100967.33;104171;1279;107865;-78
2022/05/07 03:46:11;;;;;;;0.40;0.30;;;;;;;12.29;60.26;100969.13;104196;1279;95269;-78
2022/05/07 03:48:48;;;;;;;0.40;0.30;;;;;;;12.29;60.47;100971.80;104273;1279;139058;-79
2022/05/07 03:51:17;;;;;;;0.40;0.30;;;;;;;12.43;60.42;100974.31;104814;1279;110226;-79
2022/05/07 03:53:45;;;;;;;0.40;0.30;;;;;;;12.43;60.50;100975.71;104673;1281;139005;-79
2022/05/07 03:56:17;;;;;;;0.40;0.30;;;;;;;12.56;60.04;100983.77;104807;1281;109345;-79
2022/05/07 03:58:44;;;;;;;0.40;0.30;;;;;;;12.63;59.54;100982.52;104727;1280;96039;-80
2022/05/07 04:01:17;;;;;;;0.40;0.30;;;;;;;12.70;59.68;100982.70;104768;1280;95163;-82
2022/05/07 04:03:47;;;;;;;0.40;0.30;;;;;;;12.72;59.69;100983.36;104415;1279;110211;-82
2022/05/07 04:06:15;;;;;;;0.40;0.30;;;;;;;12.75;59.89;100985.26;104624;1281;141085;-80
2022/05/07 04:08:45;;;;;;;0.40;0.30;;;;;;;12.84;59.50;100988.39;106292;1280;108548;-80
2022/05/07 04:11:14;;;;;;;0.40;0.30;;;;;;;12.94;59.38;100985.27;107352;1279;139921;-80
2022/05/07 04:13:44;;;;;;;0.40;0.30;;;;;;;13.04;59.23;100988.23;103725;1281;3421307;-79
2022/05/07 04:16:14;;;;;;;0.40;0.30;;;;;;;13.13;58.86;100988.68;105037;1281;110150;-78
2022/05/07 04:18:55;;;;;;;0.40;0.30;;;;;;;13.20;58.65;100987.08;104664;1281;140360;-80
2022/05/07 04:21:29;;;;;;;0.40;0.30;;;;;;;13.25;58.30;100988.02;104964;1279;108277;-79
2022/05/07 04:24:06;;;;;;;0.40;0.30;;;;;;;13.29;58.24;100991.63;104190;1281;141871;-79
2022/05/07 04:26:37;;;;;;;0.40;0.30;;;;;;;13.34;58.01;100992.73;104179;1279;95221;-78
2022/05/07 04:29:05;;;;;;;0.40;0.30;;;;;;;13.34;58.22;100991.30;104079;1279;140271;-78
2022/05/07 04:31:35;;;;;;;0.40;0.20;;;;;;;13.38;58.00;100992.13;104195;1281;100221;-78
2022/05/07 04:34:08;;;;;;;0.40;0.30;;;;;;;13.41;58.00;100993.64;104243;1281;109299;-78
2022/05/07 04:36:36;;;;;;;0.40;0.30;;;;;;;13.46;57.97;100998.15;103973;1282;140870;-78
2022/05/07 04:39:09;;;;;;;0.40;0.30;;;;;;;13.57;57.81;100997.84;104364;1280;95617;-78
2022/05/07 04:41:51;;;;;;;0.40;0.30;;;;;;;13.55;57.23;101002.35;104246;1279;140199;-77
2022/05/07 04:44:21;;;;;;;0.40;0.30;;;;;;;13.53;57.35;101003.11;104445;1280;99838;-79
2022/05/07 04:46:51;;;;;;;0.40;0.20;;;;;;;13.55;57.40;101004.52;104916;1279;140560;-79
2022/05/07 04:49:21;;;;;;;0.40;0.20;;;;;;;13.62;57.38;101008.94;104870;1280;95317;-79
2022/05/07 04:51:50;;;;;;;0.40;0.30;;;;;;;13.78;57.22;101007.58;104714;1281;95924;-79
2022/05/07 04:54:24;;;;;;;0.40;0.20;;;;;;;13.93;56.59;101007.48;104702;1281;140787;-78
2022/05/07 04:56:53;;;;;;;0.40;0.20;;;;;;;14.01;56.35;101010.45;104715;1279;99854;-79
2022/05/07 04:59:31;;;;;;;0.40;0.20;;;;;;;14.06;56.20;101008.52;104498;1281;140154;-78
2022/05/07 05:02:08;;;;;;;0.40;0.20;;;;;;;14.10;56.28;101013.91;104196;1279;95258;-77
2022/05/07 05:04:36;;;;;;;0.40;0.30;;;;;;;14.17;56.17;101017.09;104234;1281;95774;-78
2022/05/07 05:07:09;;;;;;;0.40;0.30;;;;;;;14.24;56.13;101018.14;104092;1279;140205;-78
2022/05/07 05:09:40;;;;;;;0.40;0.30;;;;;;;14.27;55.87;101016.94;104212;1281;100025;-78
2022/05/07 05:12:15;;;;;;;0.40;0.30;;;;;;;14.25;55.80;101020.05;104084;1281;139411;-80
2022/05/07 05:15:01;;;;;;;0.40;0.20;;;;;;;14.35;55.83;101020.46;104673;1281;95864;-79
2022/05/07 05:17:46;;;;;;;0.40;0.30;;;;;;;14.39;55.56;101018.88;105064;1279;140788;-80
2022/05/07 05:20:14;;;;;;;0.40;0.20;;;;;;;14.38;55.34;101016.79;104613;1281;110834;-79
2022/05/07 05:22:50;;;;;;;0.40;0.30;;;;;;;14.32;55.58;101020.02;104390;1281;99832;-78
2022/05/07 05:25:21;;;;;;;0.40;0.20;;;;;;;14.33;55.54;101025.71;104278;1281;109426;-79
2022/05/07 05:27:50;;;;;;;0.40;0.30;;;;;;;14.36;55.46;101026.84;104377;1281;95720;-79
2022/05/07 05:30:19;;;;;;;0.40;0.20;;;;;;;14.53;55.45;101021.84;104313;1281;140204;-80
2022/05/07 05:32:48;;;;;;;0.40;0.20;;;;;;;14.58;55.39;101026.70;104270;1281;110282;-78
2022/05/07 05:35:16;;;;;;;0.40;0.20;;;;;;;14.60;55.06;101024.83;103920;1281;139502;-78
2022/05/07 05:37:47;;;;;;;0.40;0.20;;;;;;;14.67;55.19;101028.91;104125;1281;107872;-78
2022/05/07 05:40:17;;;;;;;0.40;0.20;;;;;;;14.78;55.06;101031.79;104181;1281;95259;-78
2022/05/07 05:42:50;;;;;;;0.40;0.20;;;;;;;14.86;55.12;101035.09;104297;1280;140379;-79
2022/05/07 05:45:18;;;;;;;0.40;0.20;;;;;;;14.99;54.92;101034.65;104424;1281;110120;-79
2022/05/07 05:47:47;;;;;;;0.40;0.20;;;;;;;15.10;54.73;101039.77;104252;1279;140239;-79
2022/05/07 05:50:16;;;;;;;0.40;0.20;;;;;;;15.25;54.50;101034.44;104394;1281;107973;-79
2022/05/07 05:52:46;;;;;;;0.40;0.20;;;;;;;15.51;53.94;101037.45;104095;1281;95704;-78
2022/05/07 05:55:15;;;;;;;0.40;0.20;;;;;;;15.72;53.62;101033.13;103949;1280;139769;-78
2022/05/07 05:57:44;;;;;;;0.40;0.20;;;;;;;15.84;53.09;101033.19;104233;1280;110259;-78
2022/05/07 06:00:14;;;;;;;0.40;0.20;;;;;;;16.03;52.71;101033.91;104162;1281;141422;-78
2022/05/07 06:02:44;;;;;;;0.40;0.20;;;;;;;16.18;51.84;101029.75;104051;1280;109468;-78
2022/05/07 06:05:19;;;;;;;0.40;0.20;;;;;;;16.17;51.36;101033.17;103976;1281;140046;-78
2022/05/07 06:07:56;;;;;;;0.40;0.20;;;;;;;16.10;51.29;101032.93;104083;1279;95157;-78
2022/05/07 06:10:32;;;;;;;0.40;0.20;;;;;;;16.11;51.16;101031.27;104098;1281;110174;-78
2022/05/07 06:13:00;;;;;;;0.40;0.20;;;;;;;16.21;51.37;101032.33;103751;1281;139573;-77
2022/05/07 06:15:28;;;;;;;0.40;0.20;;;;;;;16.34;50.96;101030.55;104175;1281;109640;-77
2022/05/07 06:17:56;;;;;;;0.40;0.20;;;;;;;16.44;50.78;101037.52;103883;1281;140504;-78
2022/05/07 06:20:24;;;;;;;0.40;0.20;;;;;;;16.54;50.61;101037.65;104340;1281;95179;-79
2022/05/07 06:23:01;;;;;;;0.40;0.20;;;;;;;16.76;50.32;101037.61;104239;1280;139452;-79
2022/05/07 06:28:25;;;;;;;0.40;0.20;;;;;;;17.59;48.45;101040.33;104132;1281;109250;-78
2022/05/07 06:30:54;;;;;;;0.40;0.10;;;;;;;18.31;47.10;101037.01;103913;1281;140156;-78
2022/05/07 06:33:23;;;;;;;0.40;0.10;;;;;;;19.14;45.42;101036.67;104226;1281;95192;-78
2022/05/07 06:35:55;;;;;;;0.40;0.10;;;;;;;19.91;43.18;101034.40;103788;1281;140139;-78
2022/05/07 06:38:27;;;;;;;0.40;0.10;;;;;;;20.49;41.81;101032.61;104139;1280;99855;-77
2022/05/07 06:40:56;;;;;;;0.40;0.10;;;;;;;21.08;40.51;101034.23;103696;1281;140917;-78
2022/05/07 06:43:25;;;;;;;0.40;0.10;;;;;;;21.58;39.68;101033.00;104141;1279;95546;-78
2022/05/07 06:46:16;;;;;;;0.40;0.10;;;;;;;21.64;38.89;101033.03;104215;1279;95144;-78
2022/05/07 06:48:52;;;;;;;0.40;0.10;;;;;;;21.22;38.82;101035.15;103819;1281;139051;-78
2022/05/07 06:51:26;;;;;;;0.40;0.10;;;;;;;20.98;39.45;101034.32;104161;1280;98389;-78
2022/05/07 06:53:55;;;;;;;0.40;0.10;;;;;;;20.73;39.84;101038.83;104074;1281;140206;-78
2022/05/07 06:56:25;;;;;;;0.40;0.10;;;;;;;20.45;40.14;101034.83;104213;1280;95237;-79
2022/05/07 06:58:53;;;;;;;0.40;0.10;;;;;;;20.09;40.29;101037.75;104216;1281;139677;-80
2022/05/07 07:01:21;;;;;;;0.40;0.10;;;;;;;19.86;41.15;101040.29;105258;1279;109328;-79
2022/05/07 07:03:49;;;;;;;0.40;0.10;;;;;;;19.56;41.35;101042.94;105078;1279;99852;-79
2022/05/07 07:06:23;;;;;;;0.40;0.10;;;;;;;19.38;42.17;101042.09;105202;1279;138560;-79
2022/05/07 07:08:53;;;;;;;0.40;0.10;;;;;;;19.32;42.41;101044.93;105679;1280;95287;-80
2022/05/07 07:11:24;;;;;;;0.40;0.10;;;;;;;19.17;42.48;101044.44;105350;1279;138773;-78
2022/05/07 07:13:52;;;;;;;0.40;0.10;;;;;;;19.06;42.54;101045.74;104185;1279;110751;-78
2022/05/07 07:16:20;;;;;;;0.40;0.10;;;;;;;18.95;42.80;101039.66;104209;1279;100099;-79
2022/05/07 07:18:49;;;;;;;0.40;0.10;;;;;;;19.20;43.13;101042.50;103983;1280;140053;-79
2022/05/07 07:21:17;;;;;;;0.40;0.10;;;;;;;19.32;42.07;101042.79;104204;1280;95640;-78
2022/05/07 07:23:44;;;;;;;0.40;0.10;;;;;;;19.23;41.69;101043.05;104026;1279;138985;-79
2022/05/07 07:26:12;;;;;;;0.40;0.10;;;;;;;19.13;42.03;101043.61;104236;1279;110344;-77
2022/05/07 07:28:40;;;;;;;0.40;0.10;;;;;;;19.02;42.40;101041.98;104219;1279;99896;-78
2022/05/07 07:31:08;;;;;;;0.40;0.10;;;;;;;19.00;42.78;101038.13;104353;1279;138818;-79
2022/05/07 07:33:38;;;;;;;0.40;0.10;;;;;;;19.07;42.93;101042.09;104500;1279;95938;-78
2022/05/07 07:36:13;;;;;;;0.40;0.10;;;;;;;18.97;42.62;101037.39;104231;1278;138887;-78
2022/05/07 07:38:41;;;;;;;0.40;0.10;;;;;;;18.92;42.55;101038.20;104157;1279;109683;-78
2022/05/07 07:41:08;;;;;;;0.40;0.10;;;;;;;18.87;42.06;101036.41;103975;1279;139120;-80
2022/05/07 07:43:41;;;;;;;0.40;0.10;;;;;;;18.88;42.40;101039.62;104180;1279;109516;-78
2022/05/07 07:48:57;;;;;;;0.40;0.10;;;;;;;18.91;41.32;101039.12;104058;1280;138983;-79
2022/05/07 07:51:25;;;;;;;0.40;0.10;;;;;;;18.89;40.74;101038.86;105345;1279;110230;-82
2022/05/07 07:53:52;;;;;;;0.40;0.10;;;;;;;18.94;40.40;101038.64;104617;1279;140176;-80
2022/05/07 07:56:20;;;;;;;0.40;0.10;;;;;;;18.99;40.41;101041.96;105296;1279;108841;-78
2022/05/07 07:58:48;;;;;;;0.40;0.10;;;;;;;19.10;40.36;101041.39;104735;1281;96173;-80
2022/05/07 08:01:16;;;;;;;0.40;0.10;;;;;;;19.18;39.94;101040.62;104436;1279;141003;-79
2022/05/07 08:03:43;;;;;;;0.40;0.10;;;;;;;19.31;40.09;101043.58;104556;1279;110489;-79
2022/05/07 08:06:11;;;;;;;0.40;0.10;;;;;;;19.55;40.36;101038.68;105144;1279;140557;-80
2022/05/07 08:11:41;;;;;;;0.40;0.10;;;;;;;19.90;39.16;101040.09;104525;1279;138704;-78
2022/05/07 08:14:09;;;;;;;0.40;0.10;;;;;;;19.89;38.73;101037.95;104498;1278;95237;-78
2022/05/07 08:16:37;;;;;;;0.40;0.10;;;;;;;19.86;38.42;101033.77;104315;1277;110138;-77
2022/05/07 08:19:06;;;;;;;0.40;0.10;;;;;;;19.82;38.26;101037.77;104180;1279;139149;-78
2022/05/07 08:21:38;;;;;;;0.40;0.10;;;;;;;19.76;37.65;101035.39;104112;1279;109321;-77
2022/05/07 08:24:06;;;;;;;0.40;0.10;;;;;;;19.75;37.98;101036.36;104147;1279;140473;-79
2022/05/07 08:26:34;;;;;;;0.40;0.10;;;;;;;19.80;37.27;101031.02;104321;1280;95279;-78
2022/05/07 08:29:02;;;;;;;0.40;0.10;;;;;;;19.90;37.88;101036.11;104321;1279;137787;-81
2022/05/07 08:31:30;;;;;;;0.40;0.10;;;;;;;20.04;38.09;101027.94;104910;1279;99033;-79
2022/05/07 08:33:59;;;;;;;0.40;0.10;;;;;;;20.13;37.70;101033.41;106681;1279;108798;-78
2022/05/07 08:36:32;;;;;;;0.40;0.10;;;;;;;20.21;37.16;101032.21;105785;1279;139366;-79
2022/05/07 08:39:00;;;;;;;0.40;0.10;;;;;;;20.31;37.06;101026.59;104198;1279;95240;-78
2022/05/07 08:41:28;;;;;;;0.40;0.10;;;;;;;20.48;37.22;101031.02;104251;1279;140137;-78
2022/05/07 08:43:55;;;;;;;0.40;0.10;;;;;;;20.61;36.73;101028.64;104164;1279;97873;-77
2022/05/07 08:46:24;;;;;;;0.40;0.10;;;;;;;20.71;36.28;101027.39;104186;1279;108785;-78
2022/05/07 08:48:53;;;;;;;0.40;0.10;;;;;;;20.80;36.49;101024.35;104154;1279;140212;-80
2022/05/07 08:51:21;;;;;;;0.40;0.10;;;;;;;21.17;36.26;101026.63;104340;1279;95714;-78
2022/05/07 08:53:53;;;;;;;0.40;0.10;;;;;;;21.46;35.55;101028.48;104306;1279;139324;-78
2022/05/07 08:56:24;;;;;;;0.40;0.10;;;;;;;21.56;35.07;101021.20;104292;1279;98526;-80
2022/05/07 08:58:55;;;;;;;0.40;0.10;;;;;;;21.77;35.07;101017.94;104494;1279;138413;-79
2022/05/07 09:01:23;;;;;;;0.40;0.10;;;;;;;22.10;34.01;101021.40;105255;1279;95754;-78
2022/05/07 09:03:52;;;;;;;0.40;0.10;;;;;;;22.87;32.65;101023.09;105019;1279;95251;-78
2022/05/07 09:06:26;;;;;;;0.40;0.10;;;;;;;23.03;33.03;101023.95;104238;1279;140361;-80
2022/05/07 09:08:56;;;;;;;0.40;0.10;;;;;;;22.91;32.56;101024.75;104450;1279;100161;-79
2022/05/07 09:11:26;;;;;;;0.40;0.00;;;;;;;23.31;32.23;101023.66;104283;1279;139393;-79
2022/05/07 09:14:04;;;;;;;0.40;0.10;;;;;;;23.69;31.30;101026.80;104827;1279;95878;-79
2022/05/07 09:16:47;;;;;;;0.40;0.10;;;;;;;24.21;30.38;101027.04;105104;1279;95557;-80
2022/05/07 09:19:28;;;;;;;0.40;0.10;;;;;;;25.52;29.00;101022.78;104913;1279;138352;-79
2022/05/07 09:22:05;;;;;;;0.40;0.10;;;;;;;26.84;27.43;101016.86;104373;1279;100145;-79
2022/05/07 09:24:34;;;;;;;0.40;0.00;;;;;;;27.86;25.87;101021.80;104975;1279;138780;-78
2022/05/07 09:27:07;;;;;;;0.40;0.10;;;;;;;28.71;24.62;101014.49;105014;1279;95135;-78
2022/05/07 09:29:35;;;;;;;0.40;0.00;;;;;;;29.52;23.87;101019.41;104154;1279;138415;-79
2022/05/07 09:32:09;;;;;;;0.40;0.10;;;;;;;30.42;22.95;101018.49;104330;1279;110246;-78
2022/05/07 09:37:39;;;;;;;0.40;0.00;;;;;;;31.92;21.62;101025.04;104496;1279;107746;-80
2022/05/07 09:40:10;;;;;;;0.40;0.00;;;;;;;32.59;20.63;101020.21;104413;1279;95340;-79
2022/05/07 09:42:41;;;;;;;0.40;0.00;;;;;;;33.24;20.02;101014.26;104767;1279;139971;-79
2022/05/07 09:45:10;;;;;;;0.40;0.00;;;;;;;33.71;19.25;101012.84;105052;1279;110291;-81
2022/05/07 09:47:38;;;;;;;0.40;0.00;;;;;;;34.12;18.90;101011.10;105295;1279;138636;-79
2022/05/07 09:50:20;;;;;;;0.40;0.00;;;;;;;34.33;18.46;101007.65;105142;1279;108271;-80
2022/05/07 09:58:23;;;;;;;0.40;0.00;;;;;;;35.58;17.78;101000.35;105235;1279;110184;-80
2022/05/07 10:00:54;;;;;;;0.40;0.00;;;;;;;35.84;17.23;100996.48;105065;1279;140662;-80
2022/05/07 10:03:28;;;;;;;0.40;0.00;;;;;;;35.03;17.61;100995.89;105089;1278;109300;-80
2022/05/07 10:06:04;;;;;;;0.40;0.00;;;;;;;35.10;17.47;100994.64;105133;1279;139564;-80
2022/05/07 10:09:10;;;;;;;0.40;0.00;;;;;;;35.40;17.19;100989.17;105205;1279;95233;-80
2022/05/07 10:11:38;;;;;;;0.40;0.00;;;;;;;35.71;16.92;100993.88;105033;1279;137913;-80
2022/05/07 10:14:06;;;;;;;0.40;0.00;;;;;;;35.76;16.74;100988.25;104866;1280;100133;-79
2022/05/07 10:16:36;;;;;;;0.40;0.00;;;;;;;35.83;17.13;100984.98;104982;1279;109727;-80
2022/05/07 10:19:10;;;;;;;0.40;0.00;;;;;;;36.05;16.51;100975.21;104983;1279;138732;-81
2022/05/07 10:21:38;;;;;;;0.40;0.00;;;;;;;36.09;16.67;100977.69;105296;1279;95158;-80
2022/05/07 10:24:07;;;;;;;0.40;0.00;;;;;;;36.44;16.01;100976.79;104854;1279;138119;-79
2022/05/07 10:26:41;;;;;;;0.40;0.00;;;;;;;36.70;16.59;100967.48;104846;1279;100377;-79
2022/05/07 10:29:25;;;;;;;0.40;0.00;;;;;;;36.95;15.51;100966.87;104851;1279;141590;-80
2022/05/07 10:32:03;;;;;;;0.40;0.00;;;;;;;36.90;15.73;100968.88;104961;1279;95324;-80
2022/05/07 10:34:31;;;;;;;0.40;0.00;;;;;;;36.97;15.94;100969.75;104969;1278;95604;-80
2022/05/07 10:37:04;;;;;;;0.40;0.00;;;;;;;37.31;15.55;100969.85;105118;1278;140467;-79
2022/05/07 10:39:36;;;;;;;0.40;0.00;;;;;;;36.89;15.68;100971.80;105002;1279;98991;-81
2022/05/07 10:42:18;;;;;;;0.40;0.00;;;;;;;36.38;15.79;100972.71;104590;1279;141429;-79
2022/05/07 10:44:46;;;;;;;0.40;0.00;;;;;;;35.95;16.58;100972.91;105038;1279;95613;-80
2022/05/07 10:47:16;;;;;;;0.40;0.00;;;;;;;36.33;16.16;100971.73;105054;1279;141467;-80
2022/05/07 10:49:54;;;;;;;0.40;0.00;;;;;;;36.75;15.83;100963.94;105238;1279;110541;-79
2022/05/07 10:52:56;;;;;;;0.40;0.00;;;;;;;36.72;16.04;100968.52;105634;1279;98381;-79
2022/05/07 10:55:25;;;;;;;0.40;0.00;;;;;;;35.34;16.72;100971.02;105521;1279;108246;-79
2022/05/07 10:57:57;;;;;;;0.40;0.00;;;;;;;33.97;17.47;100974.49;104924;1279;95232;-79
2022/05/07 11:00:24;;;;;;;0.40;0.00;;;;;;;32.89;18.37;100972.64;104523;1277;139745;-79
2022/05/07 11:02:58;;;;;;;0.40;0.00;;;;;;;31.99;19.51;100977.84;104628;1279;109155;-80
2022/05/07 11:05:31;;;;;;;0.40;0.00;;;;;;;31.27;20.80;100974.80;104958;1279;138508;-79
2022/05/07 11:08:00;;;;;;;0.40;0.00;;;;;;;30.30;21.22;100972.73;104888;1279;109366;-81
2022/05/07 11:10:30;;;;;;;0.40;0.00;;;;;;;29.47;22.68;100973.82;104390;1279;95474;-78
2022/05/07 11:13:08;;;;;;;0.40;0.00;;;;;;;28.98;23.19;100971.89;104346;1279;141034;-79
2022/05/07 11:15:37;;;;;;;0.40;0.00;;;;;;;28.14;23.64;100968.11;104477;1279;110535;-79
2022/05/07 11:18:13;;;;;;;0.40;0.00;;;;;;;27.47;24.95;100969.59;104253;1279;141121;-78
2022/05/07 11:20:41;;;;;;;0.40;0.00;;;;;;;27.24;25.36;100974.69;104440;1278;109334;-80
2022/05/07 11:23:13;;;;;;;0.40;0.00;;;;;;;26.80;25.91;100971.88;104346;1278;139412;-79
2022/05/07 11:25:45;;;;;;;0.40;0.00;;;;;;;26.37;26.55;100969.34;105155;1278;95708;-83
2022/05/07 11:28:13;;;;;;;0.40;0.00;;;;;;;26.07;26.92;100962.48;105040;1278;110434;-79
2022/05/07 11:30:54;;;;;;;0.40;0.00;;;;;;;25.82;26.79;100958.77;104430;1278;139101;-80
2022/05/07 11:33:25;;;;;;;0.40;0.10;;;;;;;25.43;27.21;100959.49;104861;1279;107294;-79
2022/05/07 11:36:06;;;;;;;0.40;0.00;;;;;;;25.21;28.10;100959.94;104761;1279;140884;-79
2022/05/07 11:38:37;;;;;;;0.40;0.00;;;;;;;25.02;28.23;100953.66;104201;1281;95970;-79
2022/05/07 11:41:09;;;;;;;0.40;0.10;;;;;;;24.86;28.48;100959.41;104219;1277;140078;-79
2022/05/07 11:46:24;;;;;;;0.40;0.10;;;;;;;24.67;29.98;100950.86;104472;1278;109689;-79
2022/05/07 11:48:53;;;;;;;0.40;0.00;;;;;;;24.61;29.86;100949.10;105338;1281;137940;-81
2022/05/07 11:51:23;;;;;;;0.40;0.10;;;;;;;24.59;29.77;100946.00;104555;1279;95277;-79
2022/05/07 11:53:53;;;;;;;0.40;0.10;;;;;;;24.52;29.65;100945.63;104214;1279;140271;-78
2022/05/07 11:56:21;;;;;;;0.40;0.00;;;;;;;24.33;30.21;100945.09;104317;1279;101125;-78